createdAt,value
2023-03-21T00:00:23.458Z,7.54
2023-03-21T00:03:10.103Z,7.54
2023-03-21T00:05:40.667Z,7.55
2023-03-21T00:08:07.835Z,7.57
2023-03-21T00:10:43.233Z,7.57
2023-03-21T00:13:14.063Z,7.60
2023-03-21T00:15:46.314Z,7.62
2023-03-21T00:18:20.958Z,7.63
2023-03-21T00:21:22.327Z,7.65
2023-03-21T00:23:47.642Z,7.66
2023-03-21T00:26:14.526Z,7.67
2023-03-21T00:28:41.914Z,7.67
2023-03-21T00:31:08.743Z,7.68
2023-03-21T00:33:35.568Z,7.69
2023-03-21T00:36:06.357Z,7.70
2023-03-21T00:38:33.785Z,7.70
2023-03-21T00:41:04.747Z,7.72
2023-03-21T00:43:33.961Z,7.73
2023-03-21T00:46:01.269Z,7.73
2023-03-21T00:48:28.898Z,7.72
2023-03-21T00:50:56.468Z,7.74
2023-03-21T00:53:22.945Z,7.74
2023-03-21T00:55:49.641Z,7.75
2023-03-21T00:58:16.712Z,7.75
2023-03-21T01:00:43.603Z,7.75
2023-03-21T01:03:21.682Z,7.76
2023-03-21T01:05:50.552Z,7.76
2023-03-21T01:08:25.972Z,7.76
2023-03-21T01:10:54.997Z,7.76
2023-03-21T01:13:22.615Z,7.76
2023-03-21T01:15:50.857Z,7.76
2023-03-21T01:18:18.479Z,7.76
2023-03-21T01:20:45.280Z,7.75
2023-03-21T01:23:12.924Z,7.75
2023-03-21T01:25:39.706Z,7.75
2023-03-21T01:28:06.717Z,7.73
2023-03-21T01:30:37.025Z,7.73
2023-03-21T01:33:08.285Z,7.73
2023-03-21T01:35:48.004Z,7.72
2023-03-21T01:38:16.751Z,7.71
2023-03-21T01:40:44.808Z,7.70
2023-03-21T01:43:22.017Z,7.70
2023-03-21T01:46:08.162Z,7.70
2023-03-21T01:49:09.568Z,7.70
2023-03-21T01:51:38.866Z,7.69
2023-03-21T01:54:08.442Z,7.68
2023-03-21T01:56:36.749Z,7.68
2023-03-21T01:59:29.964Z,7.67
2023-03-21T02:02:15.961Z,7.68
2023-03-21T02:04:52.488Z,7.67
2023-03-21T02:07:27.572Z,7.67
2023-03-21T02:09:59.540Z,7.67
2023-03-21T02:12:26.873Z,7.66
2023-03-21T02:14:54.527Z,7.66
2023-03-21T02:17:46.788Z,7.67
2023-03-21T02:20:36.380Z,7.67
2023-03-21T02:23:21.916Z,7.67
2023-03-21T02:25:57.607Z,7.67
2023-03-21T02:28:40.216Z,7.66
2023-03-21T02:31:17.525Z,7.64
2023-03-21T02:33:53.821Z,7.63
2023-03-21T02:36:30.223Z,7.61
2023-03-21T02:39:09.221Z,7.59
2023-03-21T02:41:40.108Z,7.57
2023-03-21T02:44:26.381Z,7.55
2023-03-21T02:47:05.926Z,7.53
2023-03-21T02:49:51.023Z,7.52
2023-03-21T02:52:35.490Z,7.49
2023-03-21T02:55:07.839Z,7.49
2023-03-21T02:57:43.127Z,7.47
2023-03-21T03:00:16.603Z,7.45
2023-03-21T03:02:45.419Z,7.44
2023-03-21T03:05:21.316Z,7.43
2023-03-21T03:07:59.510Z,7.42
2023-03-21T03:10:44.854Z,7.42
2023-03-21T03:13:20.296Z,7.41
2023-03-21T03:15:56.080Z,7.41
2023-03-21T03:18:37.522Z,7.42
2023-03-21T03:21:09.931Z,7.42
2023-03-21T03:23:43.967Z,7.43
2023-03-21T03:26:29.281Z,7.42
2023-03-21T03:29:00.882Z,7.42
2023-03-21T03:31:46.404Z,7.41
2023-03-21T03:34:15.738Z,7.41
2023-03-21T03:36:45.907Z,7.42
2023-03-21T03:39:14.570Z,7.41
2023-03-21T03:42:06.112Z,7.41
2023-03-21T03:44:35.520Z,7.40
2023-03-21T03:47:08.477Z,7.40
2023-03-21T03:49:42.570Z,7.40
2023-03-21T03:52:11.285Z,7.40
2023-03-21T03:54:46.045Z,7.39
2023-03-21T03:57:12.913Z,7.38
2023-03-21T03:59:40.580Z,7.38
2023-03-21T04:02:29.713Z,7.39
2023-03-21T04:04:55.998Z,7.38
2023-03-21T04:07:22.295Z,7.38
2023-03-21T04:09:50.192Z,7.38
2023-03-21T04:12:18.341Z,7.37
2023-03-21T04:15:15.875Z,7.35
2023-03-21T04:17:45.773Z,7.34
2023-03-21T04:20:20.762Z,7.31
2023-03-21T04:22:50.509Z,7.31
2023-03-21T04:25:30.764Z,7.30
2023-03-21T04:28:00.198Z,7.30
2023-03-21T04:30:38.488Z,7.29
2023-03-21T04:33:13.802Z,7.29
2023-03-21T04:35:43.703Z,7.29
2023-03-21T04:38:10.005Z,7.29
2023-03-21T04:40:36.816Z,7.29
2023-03-21T04:43:03.253Z,7.28
2023-03-21T04:45:29.652Z,7.28
2023-03-21T04:47:56.355Z,7.27
2023-03-21T04:50:23.238Z,7.26
2023-03-21T04:52:49.491Z,7.26
2023-03-21T04:55:16.063Z,7.25
2023-03-21T04:57:42.413Z,7.24
2023-03-21T05:00:09.036Z,7.22
2023-03-21T05:02:35.867Z,7.22
2023-03-21T05:05:02.260Z,7.21
2023-03-21T05:07:29.800Z,7.20
2023-03-21T05:09:56.119Z,7.20
2023-03-21T05:12:22.395Z,7.19
2023-03-21T05:14:49.033Z,7.19
2023-03-21T05:17:15.502Z,7.20
2023-03-21T05:19:42.455Z,7.19
2023-03-21T05:22:09.844Z,7.20
2023-03-21T05:24:36.786Z,7.22
2023-03-21T05:27:03.256Z,7.23
2023-03-21T05:29:32.325Z,7.25
2023-03-21T05:32:01.975Z,7.27
2023-03-21T05:34:28.731Z,7.30
2023-03-21T05:36:55.094Z,7.33
2023-03-21T05:39:22.340Z,7.35
2023-03-21T05:42:01.313Z,7.39
2023-03-21T05:44:27.673Z,7.44
2023-03-21T05:46:54.159Z,7.47
2023-03-21T05:49:25.709Z,7.48
2023-03-21T05:51:54.388Z,7.48
2023-03-21T05:54:20.767Z,7.48
2023-03-21T05:56:47.679Z,7.49
2023-03-21T05:59:25.447Z,7.50
2023-03-21T06:01:53.030Z,7.52
2023-03-21T06:04:20.050Z,7.52
2023-03-21T06:06:46.390Z,7.54
2023-03-21T06:09:13.166Z,7.55
2023-03-21T06:11:43.524Z,7.55
2023-03-21T06:14:29.234Z,7.56
2023-03-21T06:17:12.999Z,7.56
2023-03-21T06:19:44.761Z,7.54
2023-03-21T06:22:17.598Z,7.55
2023-03-21T06:24:43.853Z,7.58
2023-03-21T06:27:10.360Z,7.61
2023-03-21T06:29:49.770Z,7.64
2023-03-21T06:32:16.431Z,7.68
2023-03-21T06:34:43.081Z,7.72
2023-03-21T06:37:12.408Z,7.79
2023-03-21T06:39:38.796Z,7.87
2023-03-21T06:42:05.306Z,7.92
2023-03-21T06:44:31.777Z,7.95
2023-03-21T06:47:02.449Z,7.97
2023-03-21T06:49:28.896Z,8.00
2023-03-21T06:51:57.436Z,8.06
2023-03-21T06:54:23.952Z,8.13
2023-03-21T06:56:59.396Z,8.22
2023-03-21T06:59:28.794Z,8.32
2023-03-21T07:02:00.174Z,8.43
2023-03-21T07:04:26.777Z,8.54
2023-03-21T07:06:54.247Z,8.66
2023-03-21T07:09:21.300Z,8.77
2023-03-21T07:11:47.675Z,8.85
2023-03-21T07:14:14.066Z,8.93
2023-03-21T07:16:40.466Z,9.01
2023-03-21T07:19:06.788Z,9.02
2023-03-21T07:21:33.045Z,9.08
2023-03-21T07:23:59.847Z,9.14
2023-03-21T07:26:26.192Z,9.13
2023-03-21T07:28:52.550Z,9.13
2023-03-21T07:31:18.855Z,9.15
2023-03-21T07:33:48.022Z,9.19
2023-03-21T07:36:15.207Z,9.24
2023-03-21T07:38:42.667Z,9.28
2023-03-21T07:41:09.535Z,9.28
2023-03-21T07:43:37.181Z,9.33
2023-03-21T07:46:08.495Z,9.37
2023-03-21T07:48:34.855Z,9.43
2023-03-21T07:51:01.423Z,9.47
2023-03-21T07:53:27.853Z,9.49
2023-03-21T07:55:55.001Z,9.51
2023-03-21T07:58:22.357Z,9.49
2023-03-21T08:00:49.131Z,9.48
2023-03-21T08:03:15.468Z,9.45
2023-03-21T08:05:42.294Z,9.43
2023-03-21T08:08:08.844Z,9.42
2023-03-21T08:10:35.129Z,9.44
2023-03-21T08:13:01.495Z,9.45
2023-03-21T08:15:27.806Z,9.36
2023-03-21T08:17:54.272Z,9.34
2023-03-21T08:20:21.425Z,9.36
2023-03-21T08:22:48.637Z,9.40
2023-03-21T08:25:15.618Z,9.49
2023-03-21T08:27:42.312Z,9.56
2023-03-21T08:30:09.655Z,9.63
2023-03-21T08:32:35.933Z,9.69
2023-03-21T08:35:02.629Z,9.76
2023-03-21T08:37:29.259Z,9.83
2023-03-21T08:39:55.680Z,9.92
2023-03-21T08:42:22.528Z,10.02
2023-03-21T08:44:49.382Z,10.02
2023-03-21T08:47:15.693Z,10.04
2023-03-21T08:49:42.160Z,10.07
2023-03-21T08:52:08.496Z,10.18
2023-03-21T08:54:34.894Z,10.26
2023-03-21T08:57:01.700Z,10.27
2023-03-21T08:59:28.234Z,10.29
2023-03-21T09:01:54.820Z,10.28
2023-03-21T09:04:21.459Z,10.28
2023-03-21T09:06:47.791Z,10.30
2023-03-21T09:09:14.780Z,10.30
2023-03-21T09:11:41.357Z,10.22
2023-03-21T09:14:07.990Z,10.13
2023-03-21T09:16:34.404Z,9.95
2023-03-21T09:19:00.795Z,9.70
2023-03-21T09:21:27.382Z,9.54
2023-03-21T09:23:54.262Z,9.41
2023-03-21T09:26:21.037Z,9.29
2023-03-21T09:28:47.424Z,9.21
2023-03-21T09:31:14.118Z,9.13
2023-03-21T09:33:40.598Z,9.09
2023-03-21T09:36:08.165Z,9.13
2023-03-21T09:38:34.581Z,9.26
2023-03-21T09:41:00.854Z,9.36
2023-03-21T09:43:30.163Z,9.39
2023-03-21T09:46:02.462Z,9.36
2023-03-21T09:48:57.133Z,9.33
2023-03-21T09:51:31.240Z,9.26
2023-03-21T09:54:02.428Z,9.28
2023-03-21T09:56:29.187Z,9.28
2023-03-21T09:58:57.167Z,9.31
2023-03-21T10:01:30.458Z,9.46
2023-03-21T10:03:58.317Z,9.65
2023-03-21T10:06:25.439Z,9.78
2023-03-21T10:08:52.276Z,9.83
2023-03-21T10:11:22.633Z,9.89
2023-03-21T10:14:01.193Z,10.00
2023-03-21T10:16:32.343Z,10.11
2023-03-21T10:19:01.224Z,10.15
2023-03-21T10:21:56.642Z,10.21
2023-03-21T10:24:16.801Z,10.18
2023-03-21T10:26:43.698Z,9.98
2023-03-21T10:29:12.296Z,9.78
2023-03-21T10:31:39.344Z,9.68
2023-03-21T10:34:20.042Z,9.64
2023-03-21T10:36:46.702Z,9.56
2023-03-21T10:39:25.478Z,9.41
2023-03-21T10:41:52.123Z,9.31
2023-03-21T10:44:18.845Z,9.27
2023-03-21T10:46:52.051Z,9.21
2023-03-21T10:49:19.171Z,9.17
2023-03-21T10:51:47.257Z,9.27
2023-03-21T10:54:15.625Z,9.39
2023-03-21T10:56:50.164Z,9.63
2023-03-21T10:59:20.107Z,10.04
2023-03-21T11:01:51.812Z,10.53
2023-03-21T11:04:20.778Z,10.86
2023-03-21T11:07:05.643Z,11.05
2023-03-21T11:09:52.506Z,11.06
2023-03-21T11:12:31.897Z,11.07
2023-03-21T11:15:13.375Z,11.09
2023-03-21T11:17:39.724Z,11.14
2023-03-21T11:20:07.132Z,11.10
2023-03-21T11:22:38.793Z,11.00
2023-03-21T11:25:07.480Z,10.88
2023-03-21T11:27:34.273Z,10.71
2023-03-21T11:30:03.200Z,10.53
2023-03-21T11:32:32.392Z,10.47
2023-03-21T11:35:01.986Z,10.51
2023-03-21T11:37:33.672Z,10.50
2023-03-21T11:40:26.417Z,10.49
2023-03-21T11:42:57.026Z,10.43
2023-03-21T11:45:23.401Z,10.26
2023-03-21T11:47:50.690Z,10.09
2023-03-21T11:50:32.239Z,10.07
2023-03-21T11:53:16.922Z,10.16
2023-03-21T11:55:46.493Z,10.39
2023-03-21T11:58:20.674Z,10.73
2023-03-21T12:01:19.708Z,11.15
2023-03-21T12:03:55.139Z,11.47
2023-03-21T12:06:26.808Z,11.62
2023-03-21T12:09:12.317Z,11.52
2023-03-21T12:11:58.931Z,11.20
2023-03-21T12:14:31.482Z,10.94
2023-03-21T12:17:30.501Z,10.71
2023-03-21T12:19:57.099Z,10.36
2023-03-21T12:22:23.366Z,10.09
2023-03-21T12:24:53.053Z,9.91
2023-03-21T12:27:29.161Z,9.77
2023-03-21T12:30:14.961Z,9.67
2023-03-21T12:32:51.303Z,9.56
2023-03-21T12:35:34.178Z,9.45
2023-03-21T12:38:14.162Z,9.34
2023-03-21T12:40:43.779Z,9.26
2023-03-21T12:43:13.162Z,9.17
2023-03-21T12:45:46.987Z,9.08
2023-03-21T12:48:17.415Z,9.03
2023-03-21T12:50:45.079Z,8.98
2023-03-21T12:53:34.206Z,8.92
2023-03-21T12:56:02.342Z,8.86
2023-03-21T12:58:30.594Z,8.82
2023-03-21T13:00:59.451Z,8.75
2023-03-21T13:03:40.338Z,8.68
2023-03-21T13:06:10.147Z,8.60
2023-03-21T13:08:39.770Z,8.57
2023-03-21T13:11:06.835Z,8.56
2023-03-21T13:13:59.543Z,8.53
2023-03-21T13:16:29.728Z,8.58
2023-03-21T13:19:07.690Z,8.67
2023-03-21T13:21:48.078Z,8.78
2023-03-21T13:24:23.036Z,8.83
2023-03-21T13:26:54.786Z,8.87
2023-03-21T13:29:32.667Z,8.97
2023-03-21T13:32:06.972Z,9.04
2023-03-21T13:34:33.378Z,9.19
2023-03-21T13:37:00.492Z,9.41
2023-03-21T13:39:27.899Z,9.64
2023-03-21T13:41:54.794Z,9.92
2023-03-21T13:44:24.438Z,10.16
2023-03-21T13:46:58.772Z,10.36
2023-03-21T13:49:27.620Z,10.48
2023-03-21T13:51:55.340Z,10.53
2023-03-21T13:54:21.684Z,10.60
2023-03-21T13:56:49.784Z,10.66
2023-03-21T13:59:36.128Z,10.66
2023-03-21T14:02:39.733Z,10.70
2023-03-21T14:05:16.566Z,10.72
2023-03-21T14:07:45.942Z,10.70
2023-03-21T14:10:23.700Z,10.64
2023-03-21T14:12:51.367Z,10.52
2023-03-21T14:15:40.938Z,10.38
2023-03-21T14:18:28.196Z,10.27
2023-03-21T14:21:02.309Z,10.17
2023-03-21T14:23:30.549Z,10.08
2023-03-21T14:25:56.882Z,10.05
2023-03-21T14:28:24.935Z,10.11
2023-03-21T14:30:55.368Z,10.25
2023-03-21T14:33:31.053Z,10.38
2023-03-21T14:35:58.611Z,10.41
2023-03-21T14:38:27.317Z,10.36
2023-03-21T14:40:55.101Z,10.28
2023-03-21T14:43:22.804Z,10.12
2023-03-21T14:45:50.156Z,9.99
2023-03-21T14:48:16.574Z,9.85
2023-03-21T14:50:44.158Z,9.79
2023-03-21T14:53:13.753Z,9.77
2023-03-21T14:55:59.018Z,9.77
2023-03-21T14:58:25.909Z,9.69
2023-03-21T15:00:54.066Z,9.64
2023-03-21T15:03:22.132Z,9.55
2023-03-21T15:05:49.199Z,9.47
2023-03-21T15:08:17.116Z,9.43
2023-03-21T15:11:08.275Z,9.42
2023-03-21T15:13:55.185Z,9.40
2023-03-21T15:16:22.414Z,9.35
2023-03-21T15:18:49.127Z,9.30
2023-03-21T15:21:20.760Z,9.26
2023-03-21T15:23:49.543Z,9.22
2023-03-21T15:26:17.045Z,9.20
2023-03-21T15:28:44.745Z,9.18
2023-03-21T15:31:18.802Z,9.14
2023-03-21T15:33:46.790Z,9.12
2023-03-21T15:36:17.981Z,9.11
2023-03-21T15:38:44.591Z,9.09
2023-03-21T15:41:19.942Z,9.06
2023-03-21T15:43:46.994Z,9.02
2023-03-21T15:46:15.052Z,8.96
2023-03-21T15:48:41.416Z,8.92
2023-03-21T15:51:13.607Z,8.87
2023-03-21T15:53:42.036Z,8.84
2023-03-21T15:56:09.990Z,8.81
2023-03-21T15:58:39.016Z,8.78
2023-03-21T16:01:07.719Z,8.78
2023-03-21T16:03:37.834Z,8.76
2023-03-21T16:06:16.164Z,8.75
2023-03-21T16:08:49.964Z,8.75
2023-03-21T16:11:18.515Z,8.73
2023-03-21T16:13:45.105Z,8.71
2023-03-21T16:16:20.572Z,8.71
2023-03-21T16:18:47.914Z,8.67
2023-03-21T16:21:15.616Z,8.64
2023-03-21T16:23:42.429Z,8.60
2023-03-21T16:26:22.679Z,8.56
2023-03-21T16:28:49.689Z,8.53
2023-03-21T16:31:17.420Z,8.50
2023-03-21T16:33:44.340Z,8.47
2023-03-21T16:36:14.773Z,8.47
2023-03-21T16:38:41.390Z,8.47
2023-03-21T16:41:11.304Z,8.46
2023-03-21T16:43:37.783Z,8.45
2023-03-21T16:46:04.858Z,8.42
2023-03-21T16:48:31.277Z,8.40
2023-03-21T16:50:58.234Z,8.37
2023-03-21T16:53:24.587Z,8.34
2023-03-21T16:55:51.000Z,8.33
2023-03-21T16:58:17.526Z,8.31
2023-03-21T17:00:44.155Z,8.27
2023-03-21T17:03:15.209Z,8.23
2023-03-21T17:05:41.703Z,8.19
2023-03-21T17:08:14.836Z,8.16
2023-03-21T17:10:44.862Z,8.15
2023-03-21T17:13:11.374Z,8.14
2023-03-21T17:15:37.844Z,8.13
2023-03-21T17:18:04.574Z,8.11
2023-03-21T17:20:32.251Z,8.10
2023-03-21T17:22:59.160Z,8.08
2023-03-21T17:25:27.760Z,8.06
2023-03-21T17:27:54.101Z,8.04
2023-03-21T17:30:20.558Z,8.02
2023-03-21T17:32:47.597Z,8.01
2023-03-21T17:35:14.005Z,7.99
2023-03-21T17:37:40.366Z,7.98
2023-03-21T17:40:07.847Z,7.95
2023-03-21T17:42:34.468Z,7.93
2023-03-21T17:45:00.830Z,7.91
2023-03-21T17:47:27.149Z,7.90
2023-03-21T17:49:53.665Z,7.90
2023-03-21T17:52:20.419Z,7.89
2023-03-21T17:54:46.953Z,7.87
2023-03-21T17:57:13.321Z,7.85
2023-03-21T17:59:39.644Z,7.83
2023-03-21T18:02:07.211Z,7.81
2023-03-21T18:04:33.815Z,7.77
2023-03-21T18:07:01.134Z,7.73
2023-03-21T18:09:27.833Z,7.69
2023-03-21T18:11:54.756Z,7.64
2023-03-21T18:14:27.114Z,7.58
2023-03-21T18:16:55.151Z,7.55
2023-03-21T18:19:21.643Z,7.53
2023-03-21T18:21:48.095Z,7.49
2023-03-21T18:24:15.116Z,7.47
2023-03-21T18:26:42.206Z,7.46
2023-03-21T18:30:13.207Z,7.44
2023-03-21T18:32:05.892Z,7.42
2023-03-21T18:34:35.236Z,7.39
2023-03-21T18:37:04.163Z,7.37
2023-03-21T18:39:31.836Z,7.36
2023-03-21T18:41:58.848Z,7.36
2023-03-21T18:44:29.464Z,7.39
2023-03-21T18:46:56.711Z,7.41
2023-03-21T18:52:10.888Z,7.40
2023-03-21T18:54:37.777Z,7.39
2023-03-21T18:59:51.154Z,7.37
2023-03-21T19:02:17.527Z,7.35
2023-03-21T19:04:44.064Z,7.34
2023-03-21T19:07:10.531Z,7.35
2023-03-21T19:09:58.150Z,7.36
2023-03-21T19:12:24.221Z,7.36
2023-03-21T19:14:50.685Z,7.35
2023-03-21T19:18:07.183Z,7.35
2023-03-21T19:20:04.412Z,7.35
2023-03-21T19:22:30.968Z,7.33
2023-03-21T19:24:58.676Z,7.32
2023-03-21T19:27:25.211Z,7.31
2023-03-21T19:30:08.426Z,7.30
2023-03-21T19:32:38.015Z,7.27
2023-03-21T19:35:04.967Z,7.20
2023-03-21T19:37:31.321Z,7.15
2023-03-21T19:39:58.438Z,7.09
2023-03-21T19:42:28.388Z,7.02
2023-03-21T19:44:56.472Z,6.99
2023-03-21T19:47:23.547Z,7.00
2023-03-21T19:50:35.004Z,7.01
2023-03-21T19:52:36.470Z,6.99
2023-03-21T19:55:04.119Z,6.96
2023-03-21T19:57:30.605Z,6.93
2023-03-21T19:59:58.009Z,6.91
2023-03-21T20:02:35.440Z,6.90
2023-03-21T20:05:04.703Z,6.90
2023-03-21T20:07:34.318Z,6.91
2023-03-21T20:10:00.815Z,6.91
2023-03-21T20:12:27.400Z,6.92
2023-03-21T20:15:07.251Z,6.90
2023-03-21T20:17:42.205Z,6.90
2023-03-21T20:20:08.825Z,6.89
2023-03-21T20:23:03.172Z,6.89
2023-03-21T20:25:22.694Z,6.90
2023-03-21T20:28:09.423Z,6.91
2023-03-21T20:30:36.967Z,6.90
2023-03-21T20:33:03.675Z,6.89
2023-03-21T20:36:16.584Z,6.88
2023-03-21T20:38:18.050Z,6.86
2023-03-21T20:40:44.396Z,6.84
2023-03-21T20:43:52.176Z,6.82
2023-03-21T20:46:03.310Z,6.83
2023-03-21T20:48:29.673Z,6.83
2023-03-21T20:51:45.086Z,6.83
2023-03-21T20:53:52.712Z,6.81
2023-03-21T20:56:19.087Z,6.81
2023-03-21T20:59:02.055Z,6.82
2023-03-21T21:01:33.120Z,6.82
2023-03-21T21:04:00.501Z,6.83
2023-03-21T21:06:27.103Z,6.84
2023-03-21T21:08:54.206Z,6.85
2023-03-21T21:12:05.007Z,6.85
2023-03-21T21:14:07.536Z,6.82
2023-03-21T21:16:33.906Z,6.81
2023-03-21T21:19:00.521Z,6.77
2023-03-21T21:21:26.980Z,6.74
2023-03-21T21:23:53.405Z,6.71
2023-03-21T21:26:19.714Z,6.69
2023-03-21T21:28:46.326Z,6.68
2023-03-21T21:31:14.138Z,6.69
2023-03-21T21:33:40.447Z,6.69
2023-03-21T21:36:08.171Z,6.67
2023-03-21T21:38:34.999Z,6.65
2023-03-21T21:41:01.746Z,6.63
2023-03-21T21:43:28.645Z,6.61
2023-03-21T21:45:55.356Z,6.61
2023-03-21T21:48:22.149Z,6.59
2023-03-21T21:50:49.181Z,6.56
2023-03-21T21:53:15.516Z,6.54
2023-03-21T21:55:43.168Z,6.52
2023-03-21T21:58:09.754Z,6.48
2023-03-21T22:00:37.489Z,6.47
2023-03-21T22:03:04.428Z,6.47
2023-03-21T22:05:31.057Z,6.48
2023-03-21T22:07:57.513Z,6.46
2023-03-21T22:10:25.040Z,6.46
2023-03-21T22:12:52.087Z,6.47
2023-03-21T22:15:18.584Z,6.48
2023-03-21T22:17:44.915Z,6.48
2023-03-21T22:20:15.474Z,6.48
2023-03-21T22:22:42.139Z,6.48
2023-03-21T22:25:10.297Z,6.48
2023-03-21T22:27:37.022Z,6.48
2023-03-21T22:30:04.126Z,6.47
2023-03-21T22:32:30.979Z,6.46
2023-03-21T22:34:57.561Z,6.43
2023-03-21T22:37:24.242Z,6.40
2023-03-21T22:39:50.535Z,6.38
2023-03-21T22:42:17.187Z,6.36
2023-03-21T22:44:43.460Z,6.35
2023-03-21T22:47:10.495Z,6.35
2023-03-21T22:49:38.222Z,6.36
2023-03-21T22:52:05.398Z,6.36
2023-03-21T22:54:32.002Z,6.34
2023-03-21T22:56:58.713Z,6.31
2023-03-21T22:59:25.499Z,6.31
2023-03-21T23:01:51.854Z,6.30
2023-03-21T23:04:18.718Z,6.29
2023-03-21T23:06:45.158Z,6.28
2023-03-21T23:09:12.017Z,6.26
2023-03-21T23:11:39.320Z,6.26
2023-03-21T23:14:08.348Z,6.23
2023-03-21T23:16:35.167Z,6.21
2023-03-21T23:19:01.858Z,6.19
2023-03-21T23:21:28.156Z,6.17
2023-03-21T23:23:54.460Z,6.17
2023-03-21T23:26:22.127Z,6.17
2023-03-21T23:28:49.089Z,6.17
2023-03-21T23:31:19.506Z,6.18
2023-03-21T23:33:46.930Z,6.17
2023-03-21T23:36:14.041Z,6.19
2023-03-21T23:38:40.854Z,6.20
2023-03-21T23:41:08.181Z,6.22
2023-03-21T23:43:34.815Z,6.22
2023-03-21T23:46:01.460Z,6.19
2023-03-21T23:48:28.010Z,6.11
2023-03-21T23:50:54.547Z,6.05
2023-03-21T23:53:21.085Z,6.01
2023-03-21T23:55:47.739Z,6.01
2023-03-21T23:58:14.025Z,5.99
